Weather History for Olivia, MN

Change the Weather History Date:

Monday, May 13, 2013

  Actual Average (KRWF) Record (KRWF)
Temperature  
Mean Temperature 62 °F -  
Max Temperature 84 °F 68 °F 94 °F (1932)
Min Temperature 41 °F 45 °F 27 °F (1953)
Degree Days  
Heating Degree Days 2    
Growing Degree Days 12 (Base 50)    
Moisture  
Dew Point 34 °F    
Average Humidity 38    
Maximum Humidity 53    
Minimum Humidity 26    
Precipitation  
Precipitation 0.00 in - - ()
Sea Level Pressure  
Sea Level Pressure 29.88 in    
Wind  
Wind Speed 6 mph (South)    
Max Wind Speed 26 mph    
Max Gust Speed 32 mph    
Visibility 10 miles    
Events Rain    
Averages and records for this station are not official NWS values.
T = Trace of Precipitation, MM = Missing Value Source: NWS Daily Summary

Daily Weather History Graph

Daily Weather History Graph

Search for Another Location

Airport:

Trip Planner

Search our weather history database for the weather conditions in past years. The results will help you decide how hot, cold, wet, or windy it might be!

Date:

Astronomy

May. 13, 2013 Rise Set
Actual Time 5:53 AM CDT 8:39 PM CDT
Civil Twilight 5:19 AM CDT 9:13 PM CDT
Nautical Twilight 4:37 AM CDT 9:56 PM CDT
Astronomical Twilight 3:47 AM CDT 10:46 PM CDT
Moon 8:39 AM CDT (5/13) 11:49 PM CDT (5/13)
Length of Visible Light 15h 53m
Length of Day
14h 46m
Waxing Crescent, 12% of the Moon is Illuminated
May 13
Waxing Crescent
May 17
First Quarter
May 24
Full
May 31
Last Quarter
Jun 8
New

Hourly Weather History & Observations

Time (CDT) Temp. Windchill Dew Point Humidity Pressure Visibility Wind Dir Wind Speed Gust Speed Precip Events Conditions
12:13 AM 46.4 °F - 21.2 °F 37% 30.09 in 10.0 mi Calm Calm - N/A   Clear
12:34 AM 44.6 °F - 21.2 °F 39% 30.09 in 10.0 mi Calm Calm - N/A   Clear
12:53 AM 42.8 °F - 21.2 °F 42% 30.09 in 10.0 mi Calm Calm - N/A   Clear
1:14 AM 42.8 °F - 21.2 °F 42% 30.08 in 10.0 mi Calm Calm - N/A   Clear
1:33 AM 42.8 °F - 21.2 °F 42% 30.08 in 10.0 mi Calm Calm - N/A   Clear
1:54 AM 42.8 °F - 21.2 °F 42% 30.08 in 10.0 mi Calm Calm - N/A   Clear
2:13 AM 41.0 °F - 21.2 °F 45% 30.07 in 10.0 mi Calm Calm - N/A   Clear
2:34 AM 41.0 °F - 21.2 °F 45% 30.06 in 10.0 mi Calm Calm - N/A   Clear
2:54 AM 41.0 °F - 21.2 °F 45% 30.07 in 10.0 mi Calm Calm - N/A   Clear
3:14 AM 41.0 °F - 21.2 °F 45% 30.06 in 10.0 mi Calm Calm - N/A   Clear
3:34 AM 41.0 °F - 23.0 °F 49% 30.05 in 10.0 mi Calm Calm - N/A   Clear
3:54 AM 42.8 °F - 23.0 °F 46% 30.05 in 10.0 mi Calm Calm - N/A   Clear
4:14 AM 42.8 °F - 23.0 °F 46% 30.04 in 10.0 mi Calm Calm - N/A   Clear
4:34 AM 42.8 °F - 23.0 °F 46% 30.05 in 10.0 mi Calm Calm - N/A   Clear
4:54 AM 42.8 °F - 23.0 °F 46% 30.04 in 10.0 mi Calm Calm - N/A   Clear
5:14 AM 42.8 °F - 23.0 °F 46% 30.04 in 10.0 mi Calm Calm - N/A   Clear
5:34 AM 42.8 °F - 23.0 °F 46% 30.04 in 10.0 mi Calm Calm - N/A   Clear
5:54 AM 42.8 °F - 23.0 °F 46% 30.04 in 10.0 mi Calm Calm - N/A   Clear
6:14 AM 41.0 °F - 23.0 °F 49% 30.03 in 10.0 mi Calm Calm - N/A   Clear
6:34 AM 41.0 °F 39.0 °F 24.8 °F 53% 30.02 in 10.0 mi SE 3.5 mph - N/A   Scattered Clouds
6:54 AM 42.8 °F - 24.8 °F 49% 30.03 in 10.0 mi Calm Calm - N/A   Scattered Clouds
7:14 AM 46.4 °F 42.9 °F 24.8 °F 43% 30.03 in 10.0 mi SSE 6.9 mph - N/A   Scattered Clouds
7:33 AM 50.0 °F - 26.6 °F 40% 30.02 in 10.0 mi SSE 5.8 mph - N/A   Scattered Clouds
7:54 AM 50.0 °F - 26.6 °F 40% 30.02 in 10.0 mi Calm Calm - N/A   Scattered Clouds
8:14 AM 50.0 °F - 26.6 °F 40% 30.01 in 10.0 mi Calm Calm - N/A   Scattered Clouds
8:34 AM 53.6 °F - 28.4 °F 38% 30.01 in 10.0 mi SSE 10.4 mph - N/A   Scattered Clouds
8:53 AM 53.6 °F - 28.4 °F 38% 29.99 in 10.0 mi SSE 12.7 mph - N/A   Scattered Clouds
9:14 AM 53.6 °F - 26.6 °F 35% 29.98 in 10.0 mi SSE 16.1 mph 19.6 mph N/A   Mostly Cloudy
9:34 AM 57.2 °F - 28.4 °F 33% 29.96 in 10.0 mi SSE 18.4 mph 23.0 mph N/A   Mostly Cloudy
9:54 AM 57.2 °F - 30.2 °F 36% 29.95 in 10.0 mi SSE 15.0 mph 20.7 mph N/A Rain Light Rain
10:14 AM 59.0 °F - 30.2 °F 34% 29.94 in 10.0 mi SSE 15.0 mph 20.7 mph N/A   Mostly Cloudy
10:34 AM 59.0 °F - 28.4 °F 31% 29.94 in 10.0 mi SSE 18.4 mph 26.5 mph N/A   Scattered Clouds
10:54 AM 60.8 °F - 30.2 °F 31% 29.94 in 10.0 mi SSE 17.3 mph 20.7 mph N/A   Mostly Cloudy
11:14 AM 62.6 °F - 32.0 °F 32% 29.91 in 10.0 mi SSE 17.3 mph 20.7 mph N/A   Mostly Cloudy
11:34 AM 64.4 °F - 33.8 °F 32% 29.90 in 10.0 mi SSE 20.7 mph - N/A   Scattered Clouds
11:54 AM 68.0 °F - 35.6 °F 30% 29.88 in 10.0 mi South 19.6 mph 26.5 mph N/A   Scattered Clouds
12:13 PM 69.8 °F - 41.0 °F 35% 29.87 in 10.0 mi SSE 21.9 mph 25.3 mph N/A   Scattered Clouds
12:34 PM 69.8 °F - 41.0 °F 35% 29.86 in 10.0 mi South 19.6 mph 27.6 mph N/A   Clear
12:53 PM 69.8 °F - 41.0 °F 35% 29.84 in 10.0 mi South 20.7 mph 26.5 mph N/A   Clear
1:14 PM 71.6 °F - 42.8 °F 35% 29.83 in 10.0 mi South 17.3 mph 28.8 mph N/A   Clear
1:34 PM 71.6 °F - 42.8 °F 35% 29.83 in 10.0 mi South 19.6 mph 27.6 mph N/A   Clear
1:53 PM 73.4 °F - 44.6 °F 36% 29.81 in 10.0 mi SSE 23.0 mph 28.8 mph N/A   Clear
2:14 PM 73.4 °F - 44.6 °F 36% 29.79 in 10.0 mi South 23.0 mph 29.9 mph N/A   Clear
2:34 PM 73.4 °F - 42.8 °F 33% 29.79 in 10.0 mi South 23.0 mph 27.6 mph N/A   Clear
3:34 PM 78.8 °F - 44.6 °F 30% 29.75 in 10.0 mi SSW 26.5 mph 32.2 mph N/A   Clear
3:53 PM 82.4 °F - 44.6 °F 26% 29.74 in 10.0 mi SSW 23.0 mph 29.9 mph N/A   Clear
4:14 PM 82.4 °F - 44.6 °F 26% 29.73 in 10.0 mi SW 26.5 mph 29.9 mph N/A   Clear
4:34 PM 82.4 °F - 44.6 °F 26% 29.72 in 10.0 mi WSW 21.9 mph 28.8 mph N/A   Clear
4:53 PM 82.4 °F - 44.6 °F 26% 29.71 in 10.0 mi WSW 18.4 mph 27.6 mph N/A   Clear
5:14 PM 82.4 °F - 44.6 °F 26% 29.70 in 10.0 mi WSW 19.6 mph 25.3 mph N/A   Clear
5:34 PM 82.4 °F - 46.4 °F 28% 29.69 in 10.0 mi SW 18.4 mph 24.2 mph N/A   Clear
5:54 PM 84.2 °F - 46.4 °F 27% 29.69 in 10.0 mi West 17.3 mph 24.2 mph N/A   Clear
6:33 PM 82.4 °F - 46.4 °F 28% 29.67 in 10.0 mi West 10.4 mph 16.1 mph N/A   Clear
7:14 PM 82.4 °F - 44.6 °F 26% 29.66 in 10.0 mi WSW 10.4 mph - N/A   Clear
7:34 PM 82.4 °F - 46.4 °F 28% 29.66 in 10.0 mi Calm Calm - N/A   Clear
7:53 PM 80.6 °F - 46.4 °F 30% 29.66 in 10.0 mi Calm Calm - N/A   Clear
8:14 PM 78.8 °F - 46.4 °F 32% 29.65 in 10.0 mi Calm Calm - N/A   Clear
8:34 PM 75.2 °F - 44.6 °F 34% 29.65 in 7.0 mi Calm Calm - N/A   Clear
8:54 PM 73.4 °F - 46.4 °F 38% 29.66 in 10.0 mi Calm Calm - N/A   Clear
9:14 PM 71.6 °F - 44.6 °F 38% 29.66 in 10.0 mi Calm Calm - N/A   Clear
9:34 PM 69.8 °F - 44.6 °F 40% 29.66 in 7.0 mi Calm Calm - N/A   Clear
9:54 PM 69.8 °F - 46.4 °F 43% 29.66 in 10.0 mi Calm Calm - N/A   Clear
10:14 PM 68.0 °F - 44.6 °F 43% 29.67 in 7.0 mi Calm Calm - N/A   Clear
10:34 PM 64.4 °F - 42.8 °F 45% 29.67 in 10.0 mi Calm Calm - N/A   Clear
10:54 PM 62.6 °F - 42.8 °F 48% 29.67 in 10.0 mi Calm Calm - N/A   Clear
11:13 PM 62.6 °F - 41.0 °F 45% 29.67 in 10.0 mi Calm Calm - N/A   Clear
11:34 PM 62.6 °F - 41.0 °F 45% 29.68 in 10.0 mi Calm Calm - N/A   Clear
11:54 PM 60.8 °F - 42.8 °F 52% 29.68 in 10.0 mi Calm Calm - N/A   Clear